sensor_id;sensor_type;location;lat;lon;timestamp;P1;durP1;ratioP1;P2;durP2;ratioP2
40757;SDS011;26462;47.384;19.218;2023-04-03T00:01:07;4.57;;;2.05;;
40757;SDS011;26462;47.384;19.218;2023-04-03T00:03:35;4.95;;;2.25;;
40757;SDS011;26462;47.384;19.218;2023-04-03T00:06:03;6.05;;;2.50;;
40757;SDS011;26462;47.384;19.218;2023-04-03T00:08:33;4.72;;;2.45;;
40757;SDS011;26462;47.384;19.218;2023-04-03T00:11:00;7.75;;;3.35;;
40757;SDS011;26462;47.384;19.218;2023-04-03T00:13:28;6.45;;;2.90;;
40757;SDS011;26462;47.384;19.218;2023-04-03T00:15:56;8.00;;;3.78;;
40757;SDS011;26462;47.384;19.218;2023-04-03T00:18:23;4.70;;;1.90;;
40757;SDS011;26462;47.384;19.218;2023-04-03T00:20:51;6.03;;;2.65;;
40757;SDS011;26462;47.384;19.218;2023-04-03T00:23:18;8.50;;;2.70;;
40757;SDS011;26462;47.384;19.218;2023-04-03T00:25:45;5.47;;;2.65;;
40757;SDS011;26462;47.384;19.218;2023-04-03T00:28:12;5.85;;;2.78;;
40757;SDS011;26462;47.384;19.218;2023-04-03T00:30:40;4.80;;;1.98;;
40757;SDS011;26462;47.384;19.218;2023-04-03T00:33:08;7.20;;;2.33;;
40757;SDS011;26462;47.384;19.218;2023-04-03T00:35:38;5.55;;;2.22;;
40757;SDS011;26462;47.384;19.218;2023-04-03T00:38:06;5.68;;;2.25;;
40757;SDS011;26462;47.384;19.218;2023-04-03T00:40:37;6.78;;;2.50;;
40757;SDS011;26462;47.384;19.218;2023-04-03T00:43:15;6.03;;;2.38;;
40757;SDS011;26462;47.384;19.218;2023-04-03T00:45:48;6.53;;;2.67;;
40757;SDS011;26462;47.384;19.218;2023-04-03T00:48:20;5.82;;;2.50;;
40757;SDS011;26462;47.384;19.218;2023-04-03T00:50:59;5.47;;;2.70;;
40757;SDS011;26462;47.384;19.218;2023-04-03T00:53:32;5.43;;;2.55;;
40757;SDS011;26462;47.384;19.218;2023-04-03T00:56:05;6.63;;;3.00;;
40757;SDS011;26462;47.384;19.218;2023-04-03T00:58:54;5.45;;;2.85;;
40757;SDS011;26462;47.384;19.218;2023-04-03T01:01:27;5.38;;;2.30;;
40757;SDS011;26462;47.384;19.218;2023-04-03T01:03:56;6.03;;;2.78;;
40757;SDS011;26462;47.384;19.218;2023-04-03T01:06:26;5.35;;;2.63;;
40757;SDS011;26462;47.384;19.218;2023-04-03T01:09:03;6.80;;;2.90;;
40757;SDS011;26462;47.384;19.218;2023-04-03T01:11:31;6.00;;;2.95;;
40757;SDS011;26462;47.384;19.218;2023-04-03T01:14:00;5.78;;;2.88;;
40757;SDS011;26462;47.384;19.218;2023-04-03T01:16:29;7.03;;;3.13;;
40757;SDS011;26462;47.384;19.218;2023-04-03T01:18:59;7.32;;;3.35;;
40757;SDS011;26462;47.384;19.218;2023-04-03T01:21:42;9.82;;;3.30;;
40757;SDS011;26462;47.384;19.218;2023-04-03T01:24:39;6.95;;;3.08;;
40757;SDS011;26462;47.384;19.218;2023-04-03T01:27:09;6.93;;;3.22;;
40757;SDS011;26462;47.384;19.218;2023-04-03T01:29:39;7.65;;;3.55;;
40757;SDS011;26462;47.384;19.218;2023-04-03T01:32:08;7.47;;;3.65;;
40757;SDS011;26462;47.384;19.218;2023-04-03T01:34:36;7.68;;;3.28;;
40757;SDS011;26462;47.384;19.218;2023-04-03T01:37:04;7.57;;;3.30;;
40757;SDS011;26462;47.384;19.218;2023-04-03T01:39:32;8.32;;;3.55;;
40757;SDS011;26462;47.384;19.218;2023-04-03T01:41:59;5.38;;;2.90;;
40757;SDS011;26462;47.384;19.218;2023-04-03T01:44:33;10.30;;;4.20;;
40757;SDS011;26462;47.384;19.218;2023-04-03T01:47:01;8.13;;;3.78;;
40757;SDS011;26462;47.384;19.218;2023-04-03T01:49:29;7.50;;;3.70;;
40757;SDS011;26462;47.384;19.218;2023-04-03T01:51:57;8.00;;;3.47;;
40757;SDS011;26462;47.384;19.218;2023-04-03T01:54:24;8.15;;;4.00;;
40757;SDS011;26462;47.384;19.218;2023-04-03T01:56:52;8.05;;;3.70;;
40757;SDS011;26462;47.384;19.218;2023-04-03T01:59:23;7.40;;;3.13;;
40757;SDS011;26462;47.384;19.218;2023-04-03T02:01:51;5.10;;;2.63;;
40757;SDS011;26462;47.384;19.218;2023-04-03T02:04:18;5.65;;;2.85;;
40757;SDS011;26462;47.384;19.218;2023-04-03T02:06:46;8.88;;;3.60;;
40757;SDS011;26462;47.384;19.218;2023-04-03T02:09:21;8.30;;;3.90;;
40757;SDS011;26462;47.384;19.218;2023-04-03T02:11:48;9.35;;;4.18;;
40757;SDS011;26462;47.384;19.218;2023-04-03T02:14:18;6.13;;;2.65;;
40757;SDS011;26462;47.384;19.218;2023-04-03T02:16:50;6.40;;;3.55;;
40757;SDS011;26462;47.384;19.218;2023-04-03T02:19:17;6.65;;;3.03;;
40757;SDS011;26462;47.384;19.218;2023-04-03T02:21:45;6.97;;;3.03;;
40757;SDS011;26462;47.384;19.218;2023-04-03T02:24:13;6.60;;;3.30;;
40757;SDS011;26462;47.384;19.218;2023-04-03T02:26:41;6.88;;;3.17;;
40757;SDS011;26462;47.384;19.218;2023-04-03T02:29:14;6.68;;;2.90;;
40757;SDS011;26462;47.384;19.218;2023-04-03T02:31:42;5.82;;;2.55;;
40757;SDS011;26462;47.384;19.218;2023-04-03T02:34:09;8.05;;;2.80;;
40757;SDS011;26462;47.384;19.218;2023-04-03T02:36:37;5.68;;;2.08;;
40757;SDS011;26462;47.384;19.218;2023-04-03T02:39:07;6.55;;;2.63;;
40757;SDS011;26462;47.384;19.218;2023-04-03T02:41:35;4.47;;;2.30;;
40757;SDS011;26462;47.384;19.218;2023-04-03T02:44:09;5.15;;;2.60;;
40757;SDS011;26462;47.384;19.218;2023-04-03T02:46:37;4.60;;;2.47;;
40757;SDS011;26462;47.384;19.218;2023-04-03T02:49:04;5.28;;;2.45;;
40757;SDS011;26462;47.384;19.218;2023-04-03T02:51:32;4.15;;;1.75;;
40757;SDS011;26462;47.384;19.218;2023-04-03T02:54:00;4.90;;;2.30;;
40757;SDS011;26462;47.384;19.218;2023-04-03T02:56:31;6.47;;;3.35;;
40757;SDS011;26462;47.384;19.218;2023-04-03T02:58:58;9.60;;;3.42;;
40757;SDS011;26462;47.384;19.218;2023-04-03T03:01:25;8.13;;;3.15;;
40757;SDS011;26462;47.384;19.218;2023-04-03T03:03:58;12.70;;;4.45;;
40757;SDS011;26462;47.384;19.218;2023-04-03T03:06:27;10.45;;;4.68;;
40757;SDS011;26462;47.384;19.218;2023-04-03T03:08:54;9.85;;;4.30;;
40757;SDS011;26462;47.384;19.218;2023-04-03T03:11:21;9.52;;;3.42;;
40757;SDS011;26462;47.384;19.218;2023-04-03T03:13:48;6.72;;;2.83;;
40757;SDS011;26462;47.384;19.218;2023-04-03T03:16:16;5.65;;;2.40;;
40757;SDS011;26462;47.384;19.218;2023-04-03T03:18:43;4.75;;;2.03;;
40757;SDS011;26462;47.384;19.218;2023-04-03T03:21:11;5.43;;;1.90;;
40757;SDS011;26462;47.384;19.218;2023-04-03T03:23:38;3.33;;;1.77;;
40757;SDS011;26462;47.384;19.218;2023-04-03T03:26:07;3.50;;;1.80;;
40757;SDS011;26462;47.384;19.218;2023-04-03T03:28:36;3.30;;;1.70;;
40757;SDS011;26462;47.384;19.218;2023-04-03T03:31:05;4.63;;;1.95;;
40757;SDS011;26462;47.384;19.218;2023-04-03T03:33:34;4.15;;;1.90;;
40757;SDS011;26462;47.384;19.218;2023-04-03T03:36:02;4.80;;;2.22;;
40757;SDS011;26462;47.384;19.218;2023-04-03T03:38:30;4.78;;;2.20;;
40757;SDS011;26462;47.384;19.218;2023-04-03T03:40:59;4.35;;;2.00;;
40757;SDS011;26462;47.384;19.218;2023-04-03T03:43:29;4.53;;;1.90;;
40757;SDS011;26462;47.384;19.218;2023-04-03T03:45:56;4.18;;;1.55;;
40757;SDS011;26462;47.384;19.218;2023-04-03T03:48:25;4.75;;;2.47;;
40757;SDS011;26462;47.384;19.218;2023-04-03T03:50:53;5.38;;;2.03;;
40757;SDS011;26462;47.384;19.218;2023-04-03T03:53:24;4.30;;;2.13;;
40757;SDS011;26462;47.384;19.218;2023-04-03T03:55:55;4.22;;;1.77;;
40757;SDS011;26462;47.384;19.218;2023-04-03T03:58:25;6.07;;;1.92;;
40757;SDS011;26462;47.384;19.218;2023-04-03T04:00:56;4.63;;;2.22;;
40757;SDS011;26462;47.384;19.218;2023-04-03T04:03:29;5.53;;;2.20;;
40757;SDS011;26462;47.384;19.218;2023-04-03T04:06:01;3.00;;;1.45;;
40757;SDS011;26462;47.384;19.218;2023-04-03T04:08:28;5.15;;;2.25;;
40757;SDS011;26462;47.384;19.218;2023-04-03T04:10:56;3.92;;;1.85;;
40757;SDS011;26462;47.384;19.218;2023-04-03T04:13:23;4.53;;;2.08;;
40757;SDS011;26462;47.384;19.218;2023-04-03T04:15:51;4.72;;;2.05;;
40757;SDS011;26462;47.384;19.218;2023-04-03T04:18:18;6.95;;;3.08;;
40757;SDS011;26462;47.384;19.218;2023-04-03T04:20:48;5.68;;;2.00;;
40757;SDS011;26462;47.384;19.218;2023-04-03T04:23:17;5.47;;;2.45;;
40757;SDS011;26462;47.384;19.218;2023-04-03T04:25:47;4.55;;;2.10;;
40757;SDS011;26462;47.384;19.218;2023-04-03T04:28:15;4.30;;;2.22;;
40757;SDS011;26462;47.384;19.218;2023-04-03T04:30:45;5.82;;;2.70;;
40757;SDS011;26462;47.384;19.218;2023-04-03T04:33:14;6.13;;;2.45;;
40757;SDS011;26462;47.384;19.218;2023-04-03T04:35:43;4.40;;;2.30;;
40757;SDS011;26462;47.384;19.218;2023-04-03T04:38:15;5.53;;;2.60;;
40757;SDS011;26462;47.384;19.218;2023-04-03T04:40:43;4.43;;;2.10;;
40757;SDS011;26462;47.384;19.218;2023-04-03T04:43:10;4.95;;;2.17;;
40757;SDS011;26462;47.384;19.218;2023-04-03T04:45:42;5.10;;;2.33;;
40757;SDS011;26462;47.384;19.218;2023-04-03T04:48:11;5.88;;;2.60;;
40757;SDS011;26462;47.384;19.218;2023-04-03T04:50:39;7.00;;;3.00;;
40757;SDS011;26462;47.384;19.218;2023-04-03T04:53:07;6.45;;;2.75;;
40757;SDS011;26462;47.384;19.218;2023-04-03T04:55:35;5.70;;;2.45;;
40757;SDS011;26462;47.384;19.218;2023-04-03T04:58:04;5.50;;;2.22;;
40757;SDS011;26462;47.384;19.218;2023-04-03T05:00:33;4.32;;;2.40;;
40757;SDS011;26462;47.384;19.218;2023-04-03T05:03:00;6.03;;;2.20;;
40757;SDS011;26462;47.384;19.218;2023-04-03T05:05:28;4.40;;;2.42;;
40757;SDS011;26462;47.384;19.218;2023-04-03T05:07:56;6.47;;;3.28;;
40757;SDS011;26462;47.384;19.218;2023-04-03T05:10:25;6.57;;;2.70;;
40757;SDS011;26462;47.384;19.218;2023-04-03T05:12:52;5.35;;;2.40;;
40757;SDS011;26462;47.384;19.218;2023-04-03T05:15:20;4.05;;;2.08;;
40757;SDS011;26462;47.384;19.218;2023-04-03T05:17:48;4.82;;;2.10;;
40757;SDS011;26462;47.384;19.218;2023-04-03T05:20:16;7.13;;;3.53;;
40757;SDS011;26462;47.384;19.218;2023-04-03T05:22:45;5.00;;;1.90;;
40757;SDS011;26462;47.384;19.218;2023-04-03T05:25:15;5.70;;;2.15;;
40757;SDS011;26462;47.384;19.218;2023-04-03T05:27:44;5.30;;;2.22;;
40757;SDS011;26462;47.384;19.218;2023-04-03T05:30:14;7.07;;;2.17;;
40757;SDS011;26462;47.384;19.218;2023-04-03T05:32:41;4.65;;;2.38;;
40757;SDS011;26462;47.384;19.218;2023-04-03T05:35:18;5.38;;;2.20;;
40757;SDS011;26462;47.384;19.218;2023-04-03T05:37:48;5.15;;;2.50;;
40757;SDS011;26462;47.384;19.218;2023-04-03T05:40:16;5.50;;;2.33;;
40757;SDS011;26462;47.384;19.218;2023-04-03T05:42:48;4.38;;;2.22;;
40757;SDS011;26462;47.384;19.218;2023-04-03T05:45:18;6.35;;;2.47;;
40757;SDS011;26462;47.384;19.218;2023-04-03T05:47:45;7.10;;;3.08;;
40757;SDS011;26462;47.384;19.218;2023-04-03T05:50:14;5.57;;;1.80;;
40757;SDS011;26462;47.384;19.218;2023-04-03T05:52:42;4.60;;;2.20;;
40757;SDS011;26462;47.384;19.218;2023-04-03T05:55:14;5.25;;;2.58;;
40757;SDS011;26462;47.384;19.218;2023-04-03T05:57:44;5.55;;;2.45;;
40757;SDS011;26462;47.384;19.218;2023-04-03T06:00:12;4.20;;;2.25;;
40757;SDS011;26462;47.384;19.218;2023-04-03T06:02:48;5.53;;;2.72;;
40757;SDS011;26462;47.384;19.218;2023-04-03T06:05:20;5.38;;;1.88;;
40757;SDS011;26462;47.384;19.218;2023-04-03T06:07:49;5.15;;;2.45;;
40757;SDS011;26462;47.384;19.218;2023-04-03T06:10:17;4.60;;;2.00;;
40757;SDS011;26462;47.384;19.218;2023-04-03T06:12:44;4.47;;;2.10;;
40757;SDS011;26462;47.384;19.218;2023-04-03T06:15:12;5.50;;;2.47;;
40757;SDS011;26462;47.384;19.218;2023-04-03T06:17:40;5.50;;;2.17;;
40757;SDS011;26462;47.384;19.218;2023-04-03T06:20:07;3.97;;;1.83;;
40757;SDS011;26462;47.384;19.218;2023-04-03T06:22:38;5.68;;;1.90;;
40757;SDS011;26462;47.384;19.218;2023-04-03T06:25:06;5.13;;;2.42;;
40757;SDS011;26462;47.384;19.218;2023-04-03T06:27:34;4.88;;;2.28;;
40757;SDS011;26462;47.384;19.218;2023-04-03T06:30:01;5.72;;;2.50;;
40757;SDS011;26462;47.384;19.218;2023-04-03T06:32:28;6.05;;;2.13;;
40757;SDS011;26462;47.384;19.218;2023-04-03T06:34:56;7.82;;;2.70;;
40757;SDS011;26462;47.384;19.218;2023-04-03T06:37:25;6.72;;;2.03;;
40757;SDS011;26462;47.384;19.218;2023-04-03T06:39:56;6.07;;;2.50;;
40757;SDS011;26462;47.384;19.218;2023-04-03T06:42:24;4.05;;;1.90;;
40757;SDS011;26462;47.384;19.218;2023-04-03T06:45:00;6.07;;;2.80;;
40757;SDS011;26462;47.384;19.218;2023-04-03T06:47:31;4.80;;;2.30;;
40757;SDS011;26462;47.384;19.218;2023-04-03T06:50:01;5.22;;;2.65;;
40757;SDS011;26462;47.384;19.218;2023-04-03T06:52:29;6.68;;;2.92;;
40757;SDS011;26462;47.384;19.218;2023-04-03T06:55:00;4.13;;;1.80;;
40757;SDS011;26462;47.384;19.218;2023-04-03T06:57:27;4.50;;;2.22;;
40757;SDS011;26462;47.384;19.218;2023-04-03T06:59:54;4.13;;;1.58;;
40757;SDS011;26462;47.384;19.218;2023-04-03T07:02:22;5.53;;;3.00;;
40757;SDS011;26462;47.384;19.218;2023-04-03T07:04:49;6.40;;;2.53;;
40757;SDS011;26462;47.384;19.218;2023-04-03T07:07:17;5.57;;;2.63;;
40757;SDS011;26462;47.384;19.218;2023-04-03T07:09:44;5.18;;;2.65;;
40757;SDS011;26462;47.384;19.218;2023-04-03T07:12:14;3.80;;;2.28;;
40757;SDS011;26462;47.384;19.218;2023-04-03T07:14:42;5.43;;;2.05;;
40757;SDS011;26462;47.384;19.218;2023-04-03T07:17:10;4.60;;;1.67;;
40757;SDS011;26462;47.384;19.218;2023-04-03T07:19:37;4.70;;;1.85;;
40757;SDS011;26462;47.384;19.218;2023-04-03T07:22:05;3.53;;;2.00;;
40757;SDS011;26462;47.384;19.218;2023-04-03T07:24:33;2.67;;;1.65;;
40757;SDS011;26462;47.384;19.218;2023-04-03T07:27:01;3.80;;;1.15;;
40757;SDS011;26462;47.384;19.218;2023-04-03T07:29:32;3.40;;;1.50;;
40757;SDS011;26462;47.384;19.218;2023-04-03T07:31:59;3.08;;;1.10;;
40757;SDS011;26462;47.384;19.218;2023-04-03T07:34:27;2.78;;;1.08;;
40757;SDS011;26462;47.384;19.218;2023-04-03T07:36:55;3.25;;;1.30;;
40757;SDS011;26462;47.384;19.218;2023-04-03T07:39:26;2.05;;;0.98;;
40757;SDS011;26462;47.384;19.218;2023-04-03T07:41:54;3.30;;;1.48;;
40757;SDS011;26462;47.384;19.218;2023-04-03T07:44:22;4.50;;;0.90;;
40757;SDS011;26462;47.384;19.218;2023-04-03T07:46:50;2.45;;;1.27;;
40757;SDS011;26462;47.384;19.218;2023-04-03T07:49:18;3.38;;;1.30;;
40757;SDS011;26462;47.384;19.218;2023-04-03T07:51:45;2.67;;;1.00;;
40757;SDS011;26462;47.384;19.218;2023-04-03T07:54:13;3.20;;;1.17;;
40757;SDS011;26462;47.384;19.218;2023-04-03T07:56:41;2.63;;;1.10;;
40757;SDS011;26462;47.384;19.218;2023-04-03T07:59:12;1.83;;;0.63;;
40757;SDS011;26462;47.384;19.218;2023-04-03T08:01:39;1.30;;;0.70;;
40757;SDS011;26462;47.384;19.218;2023-04-03T08:04:07;2.72;;;1.02;;
40757;SDS011;26462;47.384;19.218;2023-04-03T08:06:35;2.38;;;0.98;;
40757;SDS011;26462;47.384;19.218;2023-04-03T08:09:13;3.17;;;0.70;;
40757;SDS011;26462;47.384;19.218;2023-04-03T08:11:42;2.72;;;0.82;;
40757;SDS011;26462;47.384;19.218;2023-04-03T08:14:11;2.38;;;0.80;;
40757;SDS011;26462;47.384;19.218;2023-04-03T08:16:44;2.22;;;0.88;;
40757;SDS011;26462;47.384;19.218;2023-04-03T08:19:13;2.65;;;0.70;;
40757;SDS011;26462;47.384;19.218;2023-04-03T08:21:53;3.70;;;1.17;;
40757;SDS011;26462;47.384;19.218;2023-04-03T08:24:22;2.20;;;1.05;;
40757;SDS011;26462;47.384;19.218;2023-04-03T08:26:51;2.92;;;0.95;;
40757;SDS011;26462;47.384;19.218;2023-04-03T08:29:19;3.45;;;0.82;;
40757;SDS011;26462;47.384;19.218;2023-04-03T08:31:48;1.83;;;0.80;;
40757;SDS011;26462;47.384;19.218;2023-04-03T08:34:16;2.20;;;0.73;;
40757;SDS011;26462;47.384;19.218;2023-04-03T08:36:45;2.70;;;1.02;;
40757;SDS011;26462;47.384;19.218;2023-04-03T08:39:15;1.77;;;0.80;;
40757;SDS011;26462;47.384;19.218;2023-04-03T08:41:44;3.05;;;1.00;;
40757;SDS011;26462;47.384;19.218;2023-04-03T08:46:56;2.05;;;0.70;;
40757;SDS011;26462;47.384;19.218;2023-04-03T08:52:19;2.60;;;0.70;;
40757;SDS011;26462;47.384;19.218;2023-04-03T08:55:12;2.13;;;0.80;;
40757;SDS011;26462;47.384;19.218;2023-04-03T08:57:48;2.75;;;0.70;;
40757;SDS011;26462;47.384;19.218;2023-04-03T09:00:21;1.80;;;0.50;;
40757;SDS011;26462;47.384;19.218;2023-04-03T09:02:52;2.20;;;0.60;;
40757;SDS011;26462;47.384;19.218;2023-04-03T09:05:32;2.35;;;0.80;;
40757;SDS011;26462;47.384;19.218;2023-04-03T09:10:51;1.98;;;0.57;;
40757;SDS011;26462;47.384;19.218;2023-04-03T09:13:30;1.10;;;0.35;;
40757;SDS011;26462;47.384;19.218;2023-04-03T09:16:14;1.67;;;0.57;;
40757;SDS011;26462;47.384;19.218;2023-04-03T09:21:51;2.40;;;1.08;;
40757;SDS011;26462;47.384;19.218;2023-04-03T09:24:18;1.50;;;0.45;;
40757;SDS011;26462;47.384;19.218;2023-04-03T09:27:01;1.88;;;0.70;;
40757;SDS011;26462;47.384;19.218;2023-04-03T09:29:33;2.25;;;0.90;;
40757;SDS011;26462;47.384;19.218;2023-04-03T09:35:04;1.85;;;0.60;;
40757;SDS011;26462;47.384;19.218;2023-04-03T09:40:40;1.85;;;0.85;;
40757;SDS011;26462;47.384;19.218;2023-04-03T09:43:30;3.25;;;1.13;;
40757;SDS011;26462;47.384;19.218;2023-04-03T09:46:20;4.65;;;2.72;;
40757;SDS011;26462;47.384;19.218;2023-04-03T09:49:03;2.58;;;1.00;;
40757;SDS011;26462;47.384;19.218;2023-04-03T09:51:35;2.38;;;1.05;;
40757;SDS011;26462;47.384;19.218;2023-04-03T09:57:04;3.03;;;1.27;;
40757;SDS011;26462;47.384;19.218;2023-04-03T09:59:35;3.08;;;1.02;;
40757;SDS011;26462;47.384;19.218;2023-04-03T10:02:39;2.65;;;1.25;;
40757;SDS011;26462;47.384;19.218;2023-04-03T10:05:04;3.00;;;0.90;;
40757;SDS011;26462;47.384;19.218;2023-04-03T10:07:51;4.10;;;1.30;;
40757;SDS011;26462;47.384;19.218;2023-04-03T10:10:34;2.05;;;0.90;;
40757;SDS011;26462;47.384;19.218;2023-04-03T10:13:07;1.85;;;0.80;;
40757;SDS011;26462;47.384;19.218;2023-04-03T10:15:56;3.13;;;1.02;;
40757;SDS011;26462;47.384;19.218;2023-04-03T10:21:40;1.38;;;0.85;;
40757;SDS011;26462;47.384;19.218;2023-04-03T10:29:55;2.55;;;0.90;;
40757;SDS011;26462;47.384;19.218;2023-04-03T10:35:12;5.28;;;1.83;;
40757;SDS011;26462;47.384;19.218;2023-04-03T10:41:02;2.20;;;0.82;;
40757;SDS011;26462;47.384;19.218;2023-04-03T10:46:44;3.70;;;0.70;;
40757;SDS011;26462;47.384;19.218;2023-04-03T10:55:14;3.00;;;1.02;;
40757;SDS011;26462;47.384;19.218;2023-04-03T10:57:47;1.67;;;0.65;;
40757;SDS011;26462;47.384;19.218;2023-04-03T11:00:16;2.17;;;0.80;;
40757;SDS011;26462;47.384;19.218;2023-04-03T11:05:31;1.35;;;0.60;;
40757;SDS011;26462;47.384;19.218;2023-04-03T11:08:13;7.70;;;4.50;;
40757;SDS011;26462;47.384;19.218;2023-04-03T11:10:44;3.15;;;1.13;;
40757;SDS011;26462;47.384;19.218;2023-04-03T11:13:22;0.88;;;0.50;;
40757;SDS011;26462;47.384;19.218;2023-04-03T11:15:59;1.65;;;0.50;;
40757;SDS011;26462;47.384;19.218;2023-04-03T11:18:32;1.60;;;0.57;;
40757;SDS011;26462;47.384;19.218;2023-04-03T11:21:11;2.90;;;1.42;;
40757;SDS011;26462;47.384;19.218;2023-04-03T11:23:45;2.42;;;1.27;;
40757;SDS011;26462;47.384;19.218;2023-04-03T11:26:19;2.13;;;0.75;;
40757;SDS011;26462;47.384;19.218;2023-04-03T11:28:58;1.33;;;0.60;;
40757;SDS011;26462;47.384;19.218;2023-04-03T11:34:48;0.90;;;0.40;;
40757;SDS011;26462;47.384;19.218;2023-04-03T11:37:31;1.75;;;0.20;;
40757;SDS011;26462;47.384;19.218;2023-04-03T11:40:17;0.75;;;0.30;;
40757;SDS011;26462;47.384;19.218;2023-04-03T11:42:54;1.23;;;0.30;;
40757;SDS011;26462;47.384;19.218;2023-04-03T11:48:09;1.27;;;0.50;;
40757;SDS011;26462;47.384;19.218;2023-04-03T11:51:02;1.50;;;0.50;;
40757;SDS011;26462;47.384;19.218;2023-04-03T11:53:55;0.90;;;0.40;;
40757;SDS011;26462;47.384;19.218;2023-04-03T12:03:55;0.90;;;0.47;;
40757;SDS011;26462;47.384;19.218;2023-04-03T12:16:44;4.10;;;0.90;;
40757;SDS011;26462;47.384;19.218;2023-04-03T12:22:20;0.95;;;0.32;;
40757;SDS011;26462;47.384;19.218;2023-04-03T12:24:49;1.13;;;0.32;;
40757;SDS011;26462;47.384;19.218;2023-04-03T12:30:14;2.13;;;0.40;;
40757;SDS011;26462;47.384;19.218;2023-04-03T12:33:02;1.45;;;0.60;;
40757;SDS011;26462;47.384;19.218;2023-04-03T12:46:45;1.20;;;0.50;;
40757;SDS011;26462;47.384;19.218;2023-04-03T12:55:00;6.30;;;2.70;;
40757;SDS011;26462;47.384;19.218;2023-04-03T12:57:30;4.78;;;1.60;;
40757;SDS011;26462;47.384;19.218;2023-04-03T12:59:59;4.70;;;1.75;;
40757;SDS011;26462;47.384;19.218;2023-04-03T13:02:28;3.60;;;1.15;;
40757;SDS011;26462;47.384;19.218;2023-04-03T13:04:58;1.60;;;0.60;;
40757;SDS011;26462;47.384;19.218;2023-04-03T13:07:32;3.10;;;0.70;;
40757;SDS011;26462;47.384;19.218;2023-04-03T13:12:32;1.85;;;0.57;;
40757;SDS011;26462;47.384;19.218;2023-04-03T13:15:01;1.05;;;0.40;;
40757;SDS011;26462;47.384;19.218;2023-04-03T13:17:41;1.83;;;0.50;;
40757;SDS011;26462;47.384;19.218;2023-04-03T13:20:24;2.38;;;1.02;;
40757;SDS011;26462;47.384;19.218;2023-04-03T13:25:35;2.47;;;0.60;;
40757;SDS011;26462;47.384;19.218;2023-04-03T13:28:07;1.35;;;0.50;;
40757;SDS011;26462;47.384;19.218;2023-04-03T13:30:40;1.13;;;0.30;;
40757;SDS011;26462;47.384;19.218;2023-04-03T13:33:21;1.45;;;0.30;;
40757;SDS011;26462;47.384;19.218;2023-04-03T13:35:55;0.80;;;0.30;;
40757;SDS011;26462;47.384;19.218;2023-04-03T13:38:28;2.65;;;0.30;;
40757;SDS011;26462;47.384;19.218;2023-04-03T13:41:02;0.70;;;0.20;;
40757;SDS011;26462;47.384;19.218;2023-04-03T13:43:50;0.60;;;0.10;;
40757;SDS011;26462;47.384;19.218;2023-04-03T13:46:25;1.45;;;0.32;;
40757;SDS011;26462;47.384;19.218;2023-04-03T13:48:55;1.00;;;0.30;;
40757;SDS011;26462;47.384;19.218;2023-04-03T13:53:56;0.73;;;0.20;;
40757;SDS011;26462;47.384;19.218;2023-04-03T13:56:30;0.80;;;0.20;;
40757;SDS011;26462;47.384;19.218;2023-04-03T14:01:44;0.65;;;0.25;;
40757;SDS011;26462;47.384;19.218;2023-04-03T14:06:46;0.98;;;0.43;;
40757;SDS011;26462;47.384;19.218;2023-04-03T14:09:15;1.95;;;0.57;;
40757;SDS011;26462;47.384;19.218;2023-04-03T14:11:47;0.70;;;0.32;;
40757;SDS011;26462;47.384;19.218;2023-04-03T14:14:19;0.50;;;0.20;;
40757;SDS011;26462;47.384;19.218;2023-04-03T14:16:52;1.75;;;1.08;;
40757;SDS011;26462;47.384;19.218;2023-04-03T14:19:25;2.08;;;0.63;;
40757;SDS011;26462;47.384;19.218;2023-04-03T14:21:54;1.48;;;0.50;;
40757;SDS011;26462;47.384;19.218;2023-04-03T14:24:22;1.27;;;0.30;;
40757;SDS011;26462;47.384;19.218;2023-04-03T14:26:54;0.75;;;0.40;;
40757;SDS011;26462;47.384;19.218;2023-04-03T14:29:24;2.20;;;0.40;;
40757;SDS011;26462;47.384;19.218;2023-04-03T14:31:58;1.90;;;0.30;;
40757;SDS011;26462;47.384;19.218;2023-04-03T14:34:40;1.73;;;0.60;;
40757;SDS011;26462;47.384;19.218;2023-04-03T14:37:11;1.40;;;0.50;;
40757;SDS011;26462;47.384;19.218;2023-04-03T14:39:43;0.73;;;0.20;;
40757;SDS011;26462;47.384;19.218;2023-04-03T14:42:19;3.40;;;0.80;;
40757;SDS011;26462;47.384;19.218;2023-04-03T14:44:49;2.05;;;0.80;;
40757;SDS011;26462;47.384;19.218;2023-04-03T14:47:23;4.97;;;2.45;;
40757;SDS011;26462;47.384;19.218;2023-04-03T14:50:01;2.50;;;0.90;;
40757;SDS011;26462;47.384;19.218;2023-04-03T14:52:32;1.70;;;0.50;;
40757;SDS011;26462;47.384;19.218;2023-04-03T14:55:03;3.35;;;0.75;;
40757;SDS011;26462;47.384;19.218;2023-04-03T14:57:32;1.75;;;0.57;;
40757;SDS011;26462;47.384;19.218;2023-04-03T15:00:00;1.80;;;0.40;;
40757;SDS011;26462;47.384;19.218;2023-04-03T15:02:34;0.73;;;0.20;;
40757;SDS011;26462;47.384;19.218;2023-04-03T15:05:05;0.93;;;0.20;;
40757;SDS011;26462;47.384;19.218;2023-04-03T15:07:39;1.15;;;0.40;;
40757;SDS011;26462;47.384;19.218;2023-04-03T15:12:46;3.92;;;1.05;;
40757;SDS011;26462;47.384;19.218;2023-04-03T15:15:16;2.90;;;0.63;;
40757;SDS011;26462;47.384;19.218;2023-04-03T15:17:47;5.30;;;1.92;;
40757;SDS011;26462;47.384;19.218;2023-04-03T15:20:21;3.97;;;1.40;;
40757;SDS011;26462;47.384;19.218;2023-04-03T15:22:51;4.78;;;1.83;;
40757;SDS011;26462;47.384;19.218;2023-04-03T15:25:19;3.47;;;1.23;;
40757;SDS011;26462;47.384;19.218;2023-04-03T15:27:46;3.55;;;1.42;;
40757;SDS011;26462;47.384;19.218;2023-04-03T15:30:15;2.83;;;0.65;;
40757;SDS011;26462;47.384;19.218;2023-04-03T15:32:44;3.67;;;1.52;;
40757;SDS011;26462;47.384;19.218;2023-04-03T15:35:12;1.13;;;0.30;;
40757;SDS011;26462;47.384;19.218;2023-04-03T15:37:40;1.73;;;0.52;;
40757;SDS011;26462;47.384;19.218;2023-04-03T15:40:07;1.08;;;0.40;;
40757;SDS011;26462;47.384;19.218;2023-04-03T15:42:35;1.27;;;0.30;;
40757;SDS011;26462;47.384;19.218;2023-04-03T15:45:03;1.95;;;0.88;;
40757;SDS011;26462;47.384;19.218;2023-04-03T15:47:31;2.03;;;0.68;;
40757;SDS011;26462;47.384;19.218;2023-04-03T15:49:59;1.13;;;0.32;;
40757;SDS011;26462;47.384;19.218;2023-04-03T15:52:27;2.78;;;1.05;;
40757;SDS011;26462;47.384;19.218;2023-04-03T15:54:54;9.25;;;3.47;;
40757;SDS011;26462;47.384;19.218;2023-04-03T15:57:22;9.13;;;3.78;;
40757;SDS011;26462;47.384;19.218;2023-04-03T15:59:53;6.53;;;3.13;;
40757;SDS011;26462;47.384;19.218;2023-04-03T16:02:20;6.65;;;3.10;;
40757;SDS011;26462;47.384;19.218;2023-04-03T16:04:48;6.32;;;3.42;;
40757;SDS011;26462;47.384;19.218;2023-04-03T16:07:15;5.18;;;2.60;;
40757;SDS011;26462;47.384;19.218;2023-04-03T16:09:50;3.90;;;2.20;;
40757;SDS011;26462;47.384;19.218;2023-04-03T16:12:19;6.30;;;2.92;;
40757;SDS011;26462;47.384;19.218;2023-04-03T16:14:47;12.10;;;4.95;;
40757;SDS011;26462;47.384;19.218;2023-04-03T16:17:14;24.60;;;11.15;;
40757;SDS011;26462;47.384;19.218;2023-04-03T16:19:42;28.10;;;13.27;;
40757;SDS011;26462;47.384;19.218;2023-04-03T16:22:11;27.80;;;13.30;;
40757;SDS011;26462;47.384;19.218;2023-04-03T16:24:39;54.05;;;23.50;;
40757;SDS011;26462;47.384;19.218;2023-04-03T16:27:06;26.00;;;10.70;;
40757;SDS011;26462;47.384;19.218;2023-04-03T16:29:34;17.95;;;8.02;;
40757;SDS011;26462;47.384;19.218;2023-04-03T16:32:03;166.77;;;54.08;;
40757;SDS011;26462;47.384;19.218;2023-04-03T16:34:31;11.10;;;4.30;;
40757;SDS011;26462;47.384;19.218;2023-04-03T16:36:59;70.43;;;23.75;;
40757;SDS011;26462;47.384;19.218;2023-04-03T16:39:28;124.63;;;40.72;;
40757;SDS011;26462;47.384;19.218;2023-04-03T16:41:56;65.18;;;23.92;;
40757;SDS011;26462;47.384;19.218;2023-04-03T16:44:24;142.07;;;44.28;;